sensor_id;sensor_type;location;lat;lon;timestamp;pressure;altitude;pressure_sealevel;temperature;humidity
72909;BME280;61051;62.624;17.950;2023-07-13T00:02:28;100671.37;;;15.40;73.44
72909;BME280;61051;62.624;17.950;2023-07-13T00:04:56;100670.42;;;15.42;73.85
72909;BME280;61051;62.624;17.950;2023-07-13T00:07:24;100665.70;;;15.48;73.66
72909;BME280;61051;62.624;17.950;2023-07-13T00:09:52;100662.47;;;15.32;73.74
72909;BME280;61051;62.624;17.950;2023-07-13T00:12:24;100662.13;;;15.24;74.22
72909;BME280;61051;62.624;17.950;2023-07-13T00:14:53;100662.11;;;15.29;74.63
72909;BME280;61051;62.624;17.950;2023-07-13T00:17:20;100659.17;;;15.36;75.03
72909;BME280;61051;62.624;17.950;2023-07-13T00:19:49;100653.35;;;15.29;74.42
72909;BME280;61051;62.624;17.950;2023-07-13T00:22:17;100653.59;;;15.36;74.47
72909;BME280;61051;62.624;17.950;2023-07-13T00:24:45;100649.37;;;15.35;74.84
72909;BME280;61051;62.624;17.950;2023-07-13T00:27:15;100646.82;;;15.30;75.81
72909;BME280;61051;62.624;17.950;2023-07-13T00:29:43;100643.75;;;15.26;75.26
72909;BME280;61051;62.624;17.950;2023-07-13T00:32:11;100640.35;;;15.23;75.29
72909;BME280;61051;62.624;17.950;2023-07-13T00:34:39;100635.77;;;15.20;75.26
72909;BME280;61051;62.624;17.950;2023-07-13T00:37:07;100630.24;;;15.18;76.23
72909;BME280;61051;62.624;17.950;2023-07-13T00:39:36;100628.71;;;15.20;77.28
72909;BME280;61051;62.624;17.950;2023-07-13T00:42:04;100628.81;;;15.18;76.42
72909;BME280;61051;62.624;17.950;2023-07-13T00:44:34;100629.14;;;15.08;76.77
72909;BME280;61051;62.624;17.950;2023-07-13T00:47:02;100623.01;;;15.08;76.56
72909;BME280;61051;62.624;17.950;2023-07-13T00:49:32;100622.58;;;15.06;75.76
72909;BME280;61051;62.624;17.950;2023-07-13T00:52:05;100619.13;;;15.06;76.36
72909;BME280;61051;62.624;17.950;2023-07-13T00:54:38;100617.36;;;15.07;75.38
72909;BME280;61051;62.624;17.950;2023-07-13T00:57:13;100616.04;;;14.89;74.63
72909;BME280;61051;62.624;17.950;2023-07-13T00:59:49;100612.82;;;15.07;74.53
72909;BME280;61051;62.624;17.950;2023-07-13T01:02:19;100614.07;;;15.01;75.07
72909;BME280;61051;62.624;17.950;2023-07-13T01:04:49;100610.16;;;15.00;74.85
72909;BME280;61051;62.624;17.950;2023-07-13T01:07:18;100602.95;;;15.11;76.71
72909;BME280;61051;62.624;17.950;2023-07-13T01:09:47;100596.61;;;14.96;76.56
72909;BME280;61051;62.624;17.950;2023-07-13T01:12:15;100596.61;;;14.84;77.24
72909;BME280;61051;62.624;17.950;2023-07-13T01:14:43;100595.37;;;14.78;77.09
72909;BME280;61051;62.624;17.950;2023-07-13T01:17:12;100593.84;;;14.73;77.70
72909;BME280;61051;62.624;17.950;2023-07-13T01:19:43;100595.76;;;14.85;78.23
72909;BME280;61051;62.624;17.950;2023-07-13T01:22:15;100592.62;;;14.73;78.91
72909;BME280;61051;62.624;17.950;2023-07-13T01:24:46;100587.91;;;14.83;78.86
72909;BME280;61051;62.624;17.950;2023-07-13T01:27:22;100586.32;;;14.87;78.41
72909;BME280;61051;62.624;17.950;2023-07-13T01:29:51;100579.81;;;14.88;78.41
72909;BME280;61051;62.624;17.950;2023-07-13T01:32:22;100578.50;;;14.81;77.04
72909;BME280;61051;62.624;17.950;2023-07-13T01:34:53;100577.55;;;14.84;75.45
72909;BME280;61051;62.624;17.950;2023-07-13T01:37:22;100574.42;;;15.02;74.71
72909;BME280;61051;62.624;17.950;2023-07-13T01:39:52;100570.26;;;14.97;73.82
72909;BME280;61051;62.624;17.950;2023-07-13T01:42:19;100568.04;;;15.03;73.94
72909;BME280;61051;62.624;17.950;2023-07-13T01:44:48;100560.25;;;15.14;74.20
72909;BME280;61051;62.624;17.950;2023-07-13T01:47:16;100553.66;;;15.16;74.57
72909;BME280;61051;62.624;17.950;2023-07-13T01:49:44;100553.46;;;15.19;74.82
72909;BME280;61051;62.624;17.950;2023-07-13T01:52:12;100550.24;;;15.21;74.84
72909;BME280;61051;62.624;17.950;2023-07-13T01:54:40;100547.79;;;15.30;74.71
72909;BME280;61051;62.624;17.950;2023-07-13T01:57:08;100544.73;;;15.41;74.26
72909;BME280;61051;62.624;17.950;2023-07-13T01:59:37;100541.00;;;15.46;74.16
72909;BME280;61051;62.624;17.950;2023-07-13T02:02:05;100535.39;;;15.51;74.15
72909;BME280;61051;62.624;17.950;2023-07-13T02:04:33;100533.56;;;15.59;75.49
72909;BME280;61051;62.624;17.950;2023-07-13T02:07:02;100531.09;;;15.54;74.59
72909;BME280;61051;62.624;17.950;2023-07-13T02:09:31;100531.70;;;15.62;73.99
72909;BME280;61051;62.624;17.950;2023-07-13T02:12:01;100528.63;;;15.79;74.09
72909;BME280;61051;62.624;17.950;2023-07-13T02:14:29;100527.18;;;15.77;74.61
72909;BME280;61051;62.624;17.950;2023-07-13T02:16:58;100527.70;;;15.86;75.45
72909;BME280;61051;62.624;17.950;2023-07-13T02:19:27;100522.91;;;15.82;75.73
72909;BME280;61051;62.624;17.950;2023-07-13T02:21:56;100518.63;;;15.82;76.44
72909;BME280;61051;62.624;17.950;2023-07-13T02:24:24;100521.21;;;15.90;76.79
72909;BME280;61051;62.624;17.950;2023-07-13T02:26:52;100517.53;;;16.03;77.00
72909;BME280;61051;62.624;17.950;2023-07-13T02:29:20;100515.58;;;16.07;77.42
72909;BME280;61051;62.624;17.950;2023-07-13T02:31:48;100511.33;;;16.25;77.65
72909;BME280;61051;62.624;17.950;2023-07-13T02:34:16;100508.86;;;16.23;77.11
72909;BME280;61051;62.624;17.950;2023-07-13T02:36:44;100507.80;;;16.34;75.86
72909;BME280;61051;62.624;17.950;2023-07-13T02:39:13;100503.92;;;16.27;75.74
72909;BME280;61051;62.624;17.950;2023-07-13T02:41:43;100502.56;;;16.14;76.72
72909;BME280;61051;62.624;17.950;2023-07-13T02:44:12;100499.02;;;16.08;77.74
72909;BME280;61051;62.624;17.950;2023-07-13T02:46:41;100497.13;;;16.09;77.12
72909;BME280;61051;62.624;17.950;2023-07-13T02:49:09;100499.11;;;16.09;76.72
72909;BME280;61051;62.624;17.950;2023-07-13T02:51:37;100502.12;;;16.13;76.26
72909;BME280;61051;62.624;17.950;2023-07-13T02:54:05;100499.70;;;16.15;75.80
72909;BME280;61051;62.624;17.950;2023-07-13T02:56:33;100496.49;;;16.07;76.27
72909;BME280;61051;62.624;17.950;2023-07-13T02:59:01;100490.83;;;16.06;76.65
72909;BME280;61051;62.624;17.950;2023-07-13T03:01:29;100487.25;;;16.01;76.58
72909;BME280;61051;62.624;17.950;2023-07-13T03:03:58;100483.04;;;16.16;76.43
72909;BME280;61051;62.624;17.950;2023-07-13T03:06:27;100482.83;;;16.06;76.35
72909;BME280;61051;62.624;17.950;2023-07-13T03:08:56;100481.73;;;16.02;77.59
72909;BME280;61051;62.624;17.950;2023-07-13T03:11:24;100484.64;;;16.05;78.09
72909;BME280;61051;62.624;17.950;2023-07-13T03:13:52;100488.02;;;16.05;78.90
72909;BME280;61051;62.624;17.950;2023-07-13T03:16:21;100486.75;;;16.12;79.01
72909;BME280;61051;62.624;17.950;2023-07-13T03:18:49;100483.79;;;16.10;78.75
72909;BME280;61051;62.624;17.950;2023-07-13T03:21:19;100483.42;;;16.20;79.34
72909;BME280;61051;62.624;17.950;2023-07-13T03:23:47;100482.23;;;16.26;81.03
72909;BME280;61051;62.624;17.950;2023-07-13T03:26:18;100476.97;;;16.08;81.06
72909;BME280;61051;62.624;17.950;2023-07-13T03:28:46;100471.21;;;16.28;81.85
72909;BME280;61051;62.624;17.950;2023-07-13T03:31:17;100465.49;;;16.22;82.03
72909;BME280;61051;62.624;17.950;2023-07-13T03:33:46;100462.76;;;16.21;82.09
72909;BME280;61051;62.624;17.950;2023-07-13T03:36:17;100460.48;;;16.23;82.46
72909;BME280;61051;62.624;17.950;2023-07-13T03:38:46;100459.26;;;16.26;82.90
72909;BME280;61051;62.624;17.950;2023-07-13T03:41:16;100459.58;;;16.25;82.77
72909;BME280;61051;62.624;17.950;2023-07-13T03:43:46;100459.16;;;16.15;83.33
72909;BME280;61051;62.624;17.950;2023-07-13T03:46:14;100451.84;;;16.30;83.34
72909;BME280;61051;62.624;17.950;2023-07-13T03:48:43;100450.60;;;16.37;83.92
72909;BME280;61051;62.624;17.950;2023-07-13T03:51:13;100450.36;;;16.16;84.56
72909;BME280;61051;62.624;17.950;2023-07-13T03:53:43;100451.04;;;16.17;84.32
72909;BME280;61051;62.624;17.950;2023-07-13T03:56:12;100448.45;;;16.27;84.50
72909;BME280;61051;62.624;17.950;2023-07-13T03:58:43;100445.09;;;16.33;84.46
72909;BME280;61051;62.624;17.950;2023-07-13T04:03:16;100441.18;;;16.25;86.46
72909;BME280;61051;62.624;17.950;2023-07-13T04:05:44;100442.81;;;16.37;85.18
72909;BME280;61051;62.624;17.950;2023-07-13T04:08:13;100435.01;;;16.39;86.40
72909;BME280;61051;62.624;17.950;2023-07-13T04:10:40;100430.74;;;16.26;85.49
72909;BME280;61051;62.624;17.950;2023-07-13T04:13:10;100432.17;;;16.15;86.11
72909;BME280;61051;62.624;17.950;2023-07-13T04:15:38;100431.80;;;16.30;85.57
72909;BME280;61051;62.624;17.950;2023-07-13T04:18:06;100431.59;;;16.15;85.97
72909;BME280;61051;62.624;17.950;2023-07-13T04:20:35;100430.10;;;16.33;86.08
72909;BME280;61051;62.624;17.950;2023-07-13T04:23:03;100428.28;;;16.33;85.52
72909;BME280;61051;62.624;17.950;2023-07-13T04:25:31;100430.00;;;16.43;84.61
72909;BME280;61051;62.624;17.950;2023-07-13T04:27:59;100428.51;;;16.45;84.41
72909;BME280;61051;62.624;17.950;2023-07-13T04:30:27;100421.70;;;16.43;84.46
72909;BME280;61051;62.624;17.950;2023-07-13T04:32:56;100419.18;;;16.45;85.27
72909;BME280;61051;62.624;17.950;2023-07-13T04:35:24;100416.92;;;16.46;84.92
72909;BME280;61051;62.624;17.950;2023-07-13T04:37:52;100416.49;;;16.48;85.29
72909;BME280;61051;62.624;17.950;2023-07-13T04:40:21;100416.64;;;16.37;84.84
72909;BME280;61051;62.624;17.950;2023-07-13T04:42:49;100415.79;;;16.51;84.68
72909;BME280;61051;62.624;17.950;2023-07-13T04:45:17;100414.18;;;16.46;84.67
72909;BME280;61051;62.624;17.950;2023-07-13T04:47:45;100413.05;;;16.51;84.09
72909;BME280;61051;62.624;17.950;2023-07-13T04:50:14;100416.51;;;16.60;83.33
72909;BME280;61051;62.624;17.950;2023-07-13T04:52:43;100415.09;;;16.70;83.83
72909;BME280;61051;62.624;17.950;2023-07-13T04:55:11;100413.00;;;16.70;83.87
72909;BME280;61051;62.624;17.950;2023-07-13T04:57:39;100411.91;;;16.72;82.42
72909;BME280;61051;62.624;17.950;2023-07-13T05:00:09;100412.49;;;16.64;83.05
72909;BME280;61051;62.624;17.950;2023-07-13T05:02:38;100411.33;;;16.77;83.16
72909;BME280;61051;62.624;17.950;2023-07-13T05:05:07;100407.20;;;16.82;82.63
72909;BME280;61051;62.624;17.950;2023-07-13T05:07:35;100406.28;;;16.99;82.55
72909;BME280;61051;62.624;17.950;2023-07-13T05:10:04;100402.98;;;17.03;81.70
72909;BME280;61051;62.624;17.950;2023-07-13T05:12:33;100402.31;;;17.12;81.30
72909;BME280;61051;62.624;17.950;2023-07-13T05:15:02;100406.61;;;17.15;80.97
72909;BME280;61051;62.624;17.950;2023-07-13T05:17:31;100406.29;;;17.33;80.67
72909;BME280;61051;62.624;17.950;2023-07-13T05:20:00;100401.35;;;17.19;80.46
72909;BME280;61051;62.624;17.950;2023-07-13T05:22:29;100399.78;;;17.24;80.71
72909;BME280;61051;62.624;17.950;2023-07-13T05:24:58;100400.40;;;17.14;80.95
72909;BME280;61051;62.624;17.950;2023-07-13T05:27:27;100401.96;;;17.27;81.38
72909;BME280;61051;62.624;17.950;2023-07-13T05:29:56;100398.13;;;17.23;80.95
72909;BME280;61051;62.624;17.950;2023-07-13T05:32:25;100400.74;;;17.32;79.73
72909;BME280;61051;62.624;17.950;2023-07-13T05:34:54;100400.31;;;17.34;80.82
72909;BME280;61051;62.624;17.950;2023-07-13T05:37:22;100398.01;;;17.52;79.38
72909;BME280;61051;62.624;17.950;2023-07-13T05:39:51;100393.28;;;17.44;79.82
72909;BME280;61051;62.624;17.950;2023-07-13T05:42:19;100392.65;;;17.44;79.80
72909;BME280;61051;62.624;17.950;2023-07-13T05:44:47;100398.70;;;17.47;78.83
72909;BME280;61051;62.624;17.950;2023-07-13T05:47:16;100407.02;;;17.47;78.94
72909;BME280;61051;62.624;17.950;2023-07-13T05:49:44;100414.78;;;17.60;78.22
72909;BME280;61051;62.624;17.950;2023-07-13T05:52:12;100414.48;;;17.66;78.74
72909;BME280;61051;62.624;17.950;2023-07-13T05:54:40;100408.56;;;17.48;79.11
72909;BME280;61051;62.624;17.950;2023-07-13T05:57:08;100410.42;;;17.44;79.21
72909;BME280;61051;62.624;17.950;2023-07-13T05:59:37;100401.97;;;17.43;79.13
72909;BME280;61051;62.624;17.950;2023-07-13T06:02:07;100405.80;;;17.33;79.19
72909;BME280;61051;62.624;17.950;2023-07-13T06:04:36;100399.11;;;17.40;77.42
72909;BME280;61051;62.624;17.950;2023-07-13T06:07:05;100396.22;;;17.43;77.67
72909;BME280;61051;62.624;17.950;2023-07-13T06:09:33;100388.51;;;17.43;77.28
72909;BME280;61051;62.624;17.950;2023-07-13T06:12:01;100391.73;;;17.56;78.27
72909;BME280;61051;62.624;17.950;2023-07-13T06:14:29;100394.83;;;17.51;77.52
72909;BME280;61051;62.624;17.950;2023-07-13T06:16:59;100396.02;;;17.70;77.40
72909;BME280;61051;62.624;17.950;2023-07-13T06:19:28;100397.08;;;17.68;76.17
72909;BME280;61051;62.624;17.950;2023-07-13T06:21:58;100400.97;;;17.82;75.22
72909;BME280;61051;62.624;17.950;2023-07-13T06:24:27;100402.66;;;17.75;75.40
72909;BME280;61051;62.624;17.950;2023-07-13T06:26:55;100400.83;;;17.74;75.31
72909;BME280;61051;62.624;17.950;2023-07-13T06:29:24;100399.06;;;17.80;75.66
72909;BME280;61051;62.624;17.950;2023-07-13T06:31:52;100401.98;;;17.94;75.15
72909;BME280;61051;62.624;17.950;2023-07-13T06:34:20;100398.70;;;18.02;72.03
72909;BME280;61051;62.624;17.950;2023-07-13T06:36:48;100400.41;;;18.07;73.24
72909;BME280;61051;62.624;17.950;2023-07-13T06:39:16;100397.25;;;18.18;72.39
72909;BME280;61051;62.624;17.950;2023-07-13T06:41:44;100397.83;;;18.28;72.87
72909;BME280;61051;62.624;17.950;2023-07-13T06:44:12;100397.39;;;18.20;70.87
72909;BME280;61051;62.624;17.950;2023-07-13T06:46:41;100396.84;;;18.32;70.88
72909;BME280;61051;62.624;17.950;2023-07-13T06:49:09;100396.25;;;18.30;70.64
72909;BME280;61051;62.624;17.950;2023-07-13T06:51:37;100399.11;;;18.28;71.39
72909;BME280;61051;62.624;17.950;2023-07-13T06:54:05;100401.26;;;18.19;71.37
72909;BME280;61051;62.624;17.950;2023-07-13T06:56:33;100400.72;;;18.27;70.57
72909;BME280;61051;62.624;17.950;2023-07-13T06:59:03;100405.28;;;18.25;69.95
72909;BME280;61051;62.624;17.950;2023-07-13T07:01:31;100406.59;;;18.31;70.66
72909;BME280;61051;62.624;17.950;2023-07-13T07:03:59;100404.88;;;18.25;69.91
72909;BME280;61051;62.624;17.950;2023-07-13T07:06:28;100403.23;;;18.22;69.74
72909;BME280;61051;62.624;17.950;2023-07-13T07:08:56;100395.83;;;18.23;69.25
72909;BME280;61051;62.624;17.950;2023-07-13T07:11:26;100396.93;;;18.44;69.28
72909;BME280;61051;62.624;17.950;2023-07-13T07:13:56;100391.45;;;18.61;66.90
72909;BME280;61051;62.624;17.950;2023-07-13T07:16:25;100390.19;;;18.63;67.17
72909;BME280;61051;62.624;17.950;2023-07-13T07:18:53;100389.06;;;18.67;67.33
72909;BME280;61051;62.624;17.950;2023-07-13T07:21:21;100390.02;;;18.68;67.97
72909;BME280;61051;62.624;17.950;2023-07-13T07:23:51;100393.58;;;18.57;68.21
72909;BME280;61051;62.624;17.950;2023-07-13T07:26:19;100400.04;;;18.41;67.37
72909;BME280;61051;62.624;17.950;2023-07-13T07:28:47;100403.34;;;18.38;67.18
72909;BME280;61051;62.624;17.950;2023-07-13T07:31:15;100403.06;;;18.14;68.54
72909;BME280;61051;62.624;17.950;2023-07-13T07:33:43;100409.64;;;18.24;68.05
72909;BME280;61051;62.624;17.950;2023-07-13T07:36:12;100409.33;;;18.24;67.62
72909;BME280;61051;62.624;17.950;2023-07-13T07:38:40;100405.75;;;18.18;68.13
72909;BME280;61051;62.624;17.950;2023-07-13T07:41:08;100402.09;;;18.20;68.00
72909;BME280;61051;62.624;17.950;2023-07-13T07:43:36;100403.17;;;18.14;68.57
72909;BME280;61051;62.624;17.950;2023-07-13T07:46:04;100399.64;;;18.21;69.58
72909;BME280;61051;62.624;17.950;2023-07-13T07:48:33;100406.93;;;18.30;68.50
72909;BME280;61051;62.624;17.950;2023-07-13T07:51:02;100398.32;;;18.27;68.22
72909;BME280;61051;62.624;17.950;2023-07-13T07:53:30;100390.62;;;18.42;68.42
72909;BME280;61051;62.624;17.950;2023-07-13T07:55:59;100389.63;;;18.52;68.63
72909;BME280;61051;62.624;17.950;2023-07-13T07:58:28;100387.32;;;18.62;69.38
72909;BME280;61051;62.624;17.950;2023-07-13T08:01:02;100390.67;;;18.46;69.63
72909;BME280;61051;62.624;17.950;2023-07-13T08:03:30;100394.61;;;18.56;68.45
72909;BME280;61051;62.624;17.950;2023-07-13T08:05:59;100400.45;;;18.56;68.13
72909;BME280;61051;62.624;17.950;2023-07-13T08:08:28;100405.11;;;18.69;69.18
72909;BME280;61051;62.624;17.950;2023-07-13T08:10:57;100400.69;;;18.54;70.18
72909;BME280;61051;62.624;17.950;2023-07-13T08:13:27;100394.92;;;18.64;70.16
72909;BME280;61051;62.624;17.950;2023-07-13T08:15:55;100395.58;;;18.80;69.61
72909;BME280;61051;62.624;17.950;2023-07-13T08:18:23;100394.90;;;18.93;70.27
72909;BME280;61051;62.624;17.950;2023-07-13T08:20:51;100393.48;;;19.04;69.34
72909;BME280;61051;62.624;17.950;2023-07-13T08:23:19;100389.98;;;19.04;70.12
72909;BME280;61051;62.624;17.950;2023-07-13T08:25:51;100391.46;;;19.15;69.92
72909;BME280;61051;62.624;17.950;2023-07-13T08:28:21;100387.64;;;19.28;69.92
72909;BME280;61051;62.624;17.950;2023-07-13T08:30:50;100385.03;;;19.49;70.79
72909;BME280;61051;62.624;17.950;2023-07-13T08:33:20;100386.99;;;19.65;69.25
72909;BME280;61051;62.624;17.950;2023-07-13T08:35:49;100385.62;;;19.39;71.23
72909;BME280;61051;62.624;17.950;2023-07-13T08:38:18;100381.73;;;19.56;71.04
72909;BME280;61051;62.624;17.950;2023-07-13T08:40:50;100385.26;;;19.63;70.28
72909;BME280;61051;62.624;17.950;2023-07-13T08:43:25;100379.82;;;19.59;70.57
72909;BME280;61051;62.624;17.950;2023-07-13T08:45:59;100389.89;;;19.34;71.74
72909;BME280;61051;62.624;17.950;2023-07-13T08:48:32;100398.95;;;19.28;72.24
72909;BME280;61051;62.624;17.950;2023-07-13T08:51:11;100387.78;;;19.14;72.95
72909;BME280;61051;62.624;17.950;2023-07-13T08:53:46;100388.15;;;18.99;73.66
72909;BME280;61051;62.624;17.950;2023-07-13T08:56:18;100391.05;;;18.97;72.21
72909;BME280;61051;62.624;17.950;2023-07-13T08:58:51;100385.83;;;19.71;69.93
72909;BME280;61051;62.624;17.950;2023-07-13T09:01:27;100383.92;;;20.28;67.43
72909;BME280;61051;62.624;17.950;2023-07-13T09:04:02;100377.17;;;20.87;65.80
72909;BME280;61051;62.624;17.950;2023-07-13T09:06:46;100383.16;;;21.16;63.32
72909;BME280;61051;62.624;17.950;2023-07-13T09:09:24;100378.92;;;21.09;62.47
72909;BME280;61051;62.624;17.950;2023-07-13T09:12:02;100379.84;;;20.78;61.83
72909;BME280;61051;62.624;17.950;2023-07-13T09:14:42;100376.49;;;20.41;62.45
72909;BME280;61051;62.624;17.950;2023-07-13T09:17:16;100378.45;;;20.36;63.15
72909;BME280;61051;62.624;17.950;2023-07-13T09:19:50;100374.41;;;20.42;62.72
72909;BME280;61051;62.624;17.950;2023-07-13T09:22:22;100379.79;;;20.47;63.68
72909;BME280;61051;62.624;17.950;2023-07-13T09:25:00;100381.24;;;20.36;61.70
72909;BME280;61051;62.624;17.950;2023-07-13T09:27:35;100388.72;;;19.98;63.92
72909;BME280;61051;62.624;17.950;2023-07-13T09:30:27;100384.20;;;19.97;66.04
72909;BME280;61051;62.624;17.950;2023-07-13T09:32:59;100371.84;;;20.69;63.94
72909;BME280;61051;62.624;17.950;2023-07-13T09:35:29;100369.98;;;20.80;62.68
72909;BME280;61051;62.624;17.950;2023-07-13T09:37:59;100373.04;;;20.93;62.11
72909;BME280;61051;62.624;17.950;2023-07-13T09:40:38;100371.60;;;21.40;59.60
72909;BME280;61051;62.624;17.950;2023-07-13T09:43:11;100373.74;;;22.09;56.08
72909;BME280;61051;62.624;17.950;2023-07-13T09:45:45;100376.01;;;22.57;52.51
72909;BME280;61051;62.624;17.950;2023-07-13T09:48:15;100363.13;;;22.31;52.77
72909;BME280;61051;62.624;17.950;2023-07-13T09:50:44;100372.25;;;22.67;52.50
72909;BME280;61051;62.624;17.950;2023-07-13T09:53:14;100366.76;;;23.18;50.32
72909;BME280;61051;62.624;17.950;2023-07-13T09:55:44;100366.71;;;23.40;50.63
72909;BME280;61051;62.624;17.950;2023-07-13T09:58:16;100364.50;;;23.63;50.82
72909;BME280;61051;62.624;17.950;2023-07-13T10:03:20;100370.65;;;22.74;52.79
72909;BME280;61051;62.624;17.950;2023-07-13T10:05:51;100366.88;;;23.38;50.59
72909;BME280;61051;62.624;17.950;2023-07-13T10:08:24;100371.74;;;23.62;48.89
72909;BME280;61051;62.624;17.950;2023-07-13T10:10:58;100371.33;;;24.13;49.73
72909;BME280;61051;62.624;17.950;2023-07-13T10:13:32;100369.13;;;24.11;48.44
72909;BME280;61051;62.624;17.950;2023-07-13T10:16:01;100373.86;;;24.18;48.25
72909;BME280;61051;62.624;17.950;2023-07-13T10:18:38;100374.94;;;23.89;48.31
72909;BME280;61051;62.624;17.950;2023-07-13T10:21:12;100377.28;;;24.15;47.48
72909;BME280;61051;62.624;17.950;2023-07-13T10:23:41;100381.24;;;23.67;47.68
72909;BME280;61051;62.624;17.950;2023-07-13T10:26:16;100379.70;;;23.72;48.47
72909;BME280;61051;62.624;17.950;2023-07-13T10:28:49;100386.19;;;24.00;45.48
72909;BME280;61051;62.624;17.950;2023-07-13T10:31:19;100393.11;;;24.00;46.03
72909;BME280;61051;62.624;17.950;2023-07-13T10:33:49;100396.74;;;23.16;48.18
72909;BME280;61051;62.624;17.950;2023-07-13T10:36:27;100396.66;;;22.54;48.92
72909;BME280;61051;62.624;17.950;2023-07-13T10:39:01;100390.32;;;22.40;50.57
72909;BME280;61051;62.624;17.950;2023-07-13T10:41:36;100388.98;;;23.06;49.66
72909;BME280;61051;62.624;17.950;2023-07-13T10:44:15;100394.25;;;22.72;51.31
72909;BME280;61051;62.624;17.950;2023-07-13T10:46:48;100393.33;;;22.35;51.95
72909;BME280;61051;62.624;17.950;2023-07-13T10:49:17;100390.75;;;22.14;52.91
72909;BME280;61051;62.624;17.950;2023-07-13T10:51:46;100391.21;;;21.79;54.23
72909;BME280;61051;62.624;17.950;2023-07-13T10:54:19;100395.12;;;21.43;56.32
72909;BME280;61051;62.624;17.950;2023-07-13T10:56:50;100395.46;;;21.70;54.37
72909;BME280;61051;62.624;17.950;2023-07-13T10:59:24;100388.77;;;21.97;54.01
72909;BME280;61051;62.624;17.950;2023-07-13T11:01:57;100392.97;;;21.54;56.41
72909;BME280;61051;62.624;17.950;2023-07-13T11:04:29;100391.86;;;21.34;57.01
72909;BME280;61051;62.624;17.950;2023-07-13T11:07:00;100389.79;;;21.47;57.56
72909;BME280;61051;62.624;17.950;2023-07-13T11:09:40;100392.38;;;22.36;53.83
72909;BME280;61051;62.624;17.950;2023-07-13T11:12:26;100399.61;;;22.18;53.13
72909;BME280;61051;62.624;17.950;2023-07-13T11:15:05;100394.61;;;22.32;53.18
72909;BME280;61051;62.624;17.950;2023-07-13T11:17:38;100396.22;;;21.99;54.00
72909;BME280;61051;62.624;17.950;2023-07-13T11:20:48;100406.34;;;21.55;54.20
72909;BME280;61051;62.624;17.950;2023-07-13T11:23:27;100402.35;;;21.65;55.31
72909;BME280;61051;62.624;17.950;2023-07-13T11:25:56;100401.76;;;21.38;56.10
72909;BME280;61051;62.624;17.950;2023-07-13T11:28:26;100406.87;;;21.47;55.48
72909;BME280;61051;62.624;17.950;2023-07-13T11:31:13;100409.46;;;21.64;54.31
72909;BME280;61051;62.624;17.950;2023-07-13T11:33:53;100403.95;;;22.12;52.24
72909;BME280;61051;62.624;17.950;2023-07-13T11:36:31;100395.54;;;23.11;50.48
72909;BME280;61051;62.624;17.950;2023-07-13T11:39:13;100392.74;;;24.27;47.24
72909;BME280;61051;62.624;17.950;2023-07-13T11:41:48;100399.91;;;24.53;47.56
72909;BME280;61051;62.624;17.950;2023-07-13T11:44:19;100392.76;;;26.21;42.71
72909;BME280;61051;62.624;17.950;2023-07-13T11:46:50;100394.80;;;25.70;43.56
72909;BME280;61051;62.624;17.950;2023-07-13T11:49:22;100398.80;;;24.28;45.50
72909;BME280;61051;62.624;17.950;2023-07-13T11:51:53;100398.45;;;23.83;47.52
72909;BME280;61051;62.624;17.950;2023-07-13T11:54:26;100401.81;;;25.06;45.10
72909;BME280;61051;62.624;17.950;2023-07-13T11:56:56;100393.15;;;27.85;39.62
72909;BME280;61051;62.624;17.950;2023-07-13T11:59:26;100396.90;;;26.08;42.29
72909;BME280;61051;62.624;17.950;2023-07-13T12:01:57;100394.42;;;24.91;44.68
72909;BME280;61051;62.624;17.950;2023-07-13T12:04:28;100392.94;;;26.68;42.41
72909;BME280;61051;62.624;17.950;2023-07-13T12:07:04;100386.69;;;28.75;36.76
72909;BME280;61051;62.624;17.950;2023-07-13T12:09:34;100393.36;;;25.88;42.48
72909;BME280;61051;62.624;17.950;2023-07-13T12:12:10;100394.55;;;25.55;43.44
72909;BME280;61051;62.624;17.950;2023-07-13T12:14:40;100399.32;;;26.80;40.35
72909;BME280;61051;62.624;17.950;2023-07-13T12:17:11;100388.12;;;27.70;38.80
72909;BME280;61051;62.624;17.950;2023-07-13T12:19:41;100395.23;;;27.13;39.72
72909;BME280;61051;62.624;17.950;2023-07-13T12:22:12;100392.99;;;25.39;43.22
72909;BME280;61051;62.624;17.950;2023-07-13T12:24:42;100392.67;;;25.55;42.58
72909;BME280;61051;62.624;17.950;2023-07-13T12:27:19;100397.39;;;24.74;45.03
72909;BME280;61051;62.624;17.950;2023-07-13T12:29:51;100393.66;;;26.48;40.85
72909;BME280;61051;62.624;17.950;2023-07-13T12:32:19;100390.96;;;25.81;42.41
72909;BME280;61051;62.624;17.950;2023-07-13T12:34:57;100392.64;;;26.76;41.34
72909;BME280;61051;62.624;17.950;2023-07-13T12:37:34;100389.15;;;27.27;40.97
72909;BME280;61051;62.624;17.950;2023-07-13T12:40:04;100387.60;;;25.27;43.60
72909;BME280;61051;62.624;17.950;2023-07-13T12:42:33;100400.65;;;24.26;45.81
72909;BME280;61051;62.624;17.950;2023-07-13T12:45:03;100393.68;;;23.72;48.44
72909;BME280;61051;62.624;17.950;2023-07-13T12:47:40;100400.81;;;23.28;49.95
72909;BME280;61051;62.624;17.950;2023-07-13T12:50:16;100388.68;;;23.23;50.04
72909;BME280;61051;62.624;17.950;2023-07-13T12:52:51;100399.65;;;22.85;51.77
72909;BME280;61051;62.624;17.950;2023-07-13T12:55:22;100391.33;;;24.39;47.29
72909;BME280;61051;62.624;17.950;2023-07-13T12:57:54;100390.04;;;23.88;48.20
72909;BME280;61051;62.624;17.950;2023-07-13T13:00:27;100386.01;;;23.72;50.03
72909;BME280;61051;62.624;17.950;2023-07-13T13:02:58;100381.28;;;23.85;48.58